Time;durP1;ratioP1;P1;durP2;ratioP2;P2;SDS_P1;SDS_P2;PMS_P1;PMS_P2;Temp;Humidity;BMP_temperature;BMP_pressure;BME280_temperature;BME280_humidity;BME280_pressure;Samples;Min_cycle;Max_cycle;Signal;HPM_P1;HPM_P2
2022/08/11 00:01:12;;;;;;;3.20;2.90;;;;;;;21.44;50.04;94025.72;5072065;28;20032;-75
2022/08/11 00:03:43;;;;;;;4.03;3.47;;;;;;;21.34;50.37;94021.00;5070218;28;20052;-75
2022/08/11 00:06:10;;;;;;;4.00;2.95;;;;;;;21.22;50.49;94012.38;5071690;28;20433;-75
2022/08/11 00:08:36;;;;;;;3.40;2.65;;;;;;;21.22;50.53;94029.41;5071824;28;20023;-75
2022/08/11 00:11:06;;;;;;;3.40;3.10;;;;;;;21.21;50.71;94032.50;5069062;28;20056;-75
2022/08/11 00:13:32;;;;;;;3.65;3.05;;;;;;;21.19;50.67;94035.56;5069671;28;20061;-75
2022/08/11 00:15:58;;;;;;;3.60;2.97;;;;;;;21.18;50.48;94038.63;5071448;28;20407;-75
2022/08/11 00:18:24;;;;;;;5.97;3.72;;;;;;;21.07;50.90;94019.63;5072836;28;20394;-74
2022/08/11 00:20:50;;;;;;;3.45;3.03;;;;;;;21.09;50.51;94022.75;5070163;28;20022;-75
2022/08/11 00:23:18;;;;;;;5.85;3.50;;;;;;;21.00;50.96;94014.16;5068832;28;20020;-74
2022/08/11 00:25:53;;;;;;;3.97;3.35;;;;;;;21.06;50.95;94030.81;5066999;28;21272;-75
2022/08/11 00:28:29;;;;;;;4.03;3.42;;;;;;;21.00;51.13;94030.41;5071442;28;20081;-75
2022/08/11 00:30:58;;;;;;;3.92;3.38;;;;;;;20.95;51.28;94026.09;5069505;28;20027;-75
2022/08/11 00:33:33;;;;;;;4.15;3.38;;;;;;;20.97;51.34;94028.44;5072179;28;20034;-75
2022/08/11 00:36:01;;;;;;;3.92;3.28;;;;;;;20.84;51.56;94013.59;5071066;28;20512;-75
2022/08/11 00:38:32;;;;;;;3.83;3.42;;;;;;;20.92;51.88;94020.69;5072673;28;20161;-75
2022/08/11 00:41:07;;;;;;;4.50;3.72;;;;;;;20.71;52.15;94005.00;5070220;28;20015;-74
2022/08/11 00:43:45;;;;;;;4.75;3.90;;;;;;;20.94;51.83;94015.66;5070099;28;20031;-75
2022/08/11 00:46:14;;;;;;;4.63;3.40;;;;;;;20.93;51.59;94000.56;5072453;28;20033;-75
2022/08/11 00:49:28;;;;;;;5.43;3.22;;;;;;;21.05;51.50;94013.81;5061993;28;20140;-75
2022/08/11 00:51:58;;;;;;;4.95;3.25;;;;;;;20.92;51.49;93999.81;5023161;28;20320;-74
2022/08/11 00:54:49;;;;;;;4.93;3.50;;;;;;;21.06;51.38;94015.38;5071414;28;20077;-75
2022/08/11 00:57:17;;;;;;;4.03;3.53;;;;;;;21.04;51.64;94006.84;5069297;28;20031;-74
2022/08/11 01:00:15;;;;;;;6.00;3.20;;;;;;;21.07;51.39;94000.69;5071779;28;20044;-75
2022/08/11 01:03:05;;;;;;;5.90;3.15;;;;;;;20.88;51.20;93984.69;5069483;28;20521;-75
2022/08/11 01:05:59;;;;;;;3.90;3.50;;;;;;;20.87;51.22;94000.16;5071559;28;20050;-76
2022/08/11 01:09:22;;;;;;;3.78;3.40;;;;;;;20.93;51.48;94019.50;5068152;28;20101;-74
2022/08/11 01:12:10;;;;;;;7.07;4.07;;;;;;;20.83;51.68;94012.03;5036057;28;20032;-74
2022/08/11 01:15:06;;;;;;;3.88;3.47;;;;;;;20.76;51.73;94012.00;5021708;28;20025;-74
2022/08/11 01:17:56;;;;;;;4.63;3.13;;;;;;;20.70;51.89;94010.78;5064300;28;20037;-75
2022/08/11 01:20:52;;;;;;;4.07;3.13;;;;;;;20.68;52.03;94005.72;5068826;28;20435;-76
2022/08/11 01:23:42;;;;;;;4.72;3.92;;;;;;;20.67;51.86;94017.72;5069255;28;20400;-75
2022/08/11 01:26:41;;;;;;;5.13;3.50;;;;;;;20.63;52.03;94008.78;5071676;28;20543;-75
2022/08/11 01:29:13;;;;;;;4.53;3.97;;;;;;;20.60;51.89;94004.91;5077398;28;20067;-75
2022/08/11 01:31:57;;;;;;;4.65;4.18;;;;;;;20.65;52.00;94011.88;5070046;28;20032;-75
2022/08/11 01:34:25;;;;;;;5.17;3.90;;;;;;;20.67;52.11;94003.44;5071757;28;20472;-75
2022/08/11 01:37:03;;;;;;;6.28;3.65;;;;;;;20.59;52.41;94000.63;5071270;28;20037;-75
2022/08/11 01:39:53;;;;;;;3.65;3.00;;;;;;;20.58;52.26;94001.03;5066895;28;20399;-74
2022/08/11 01:45:37;;;;;;;5.22;3.50;;;;;;;20.50;52.42;94007.50;5071471;28;20161;-74
2022/08/11 01:48:14;;;;;;;4.72;3.60;;;;;;;20.30;52.67;93979.88;5070345;28;20347;-74
2022/08/11 01:50:54;;;;;;;3.67;3.33;;;;;;;20.48;52.58;93993.59;5070199;28;20034;-75
2022/08/11 01:53:34;;;;;;;5.68;3.45;;;;;;;20.50;52.66;94000.16;5081288;28;20081;-75
2022/08/11 01:56:43;;;;;;;5.97;3.22;;;;;;;20.56;52.49;93998.69;5072053;28;20027;-76
2022/08/11 01:59:32;;;;;;;4.57;3.50;;;;;;;20.59;52.27;93995.25;5051338;28;20114;-75
2022/08/11 02:02:12;;;;;;;4.78;3.17;;;;;;;20.57;52.13;93997.56;5050060;28;20060;-76
2022/08/11 02:04:51;;;;;;;6.78;3.90;;;;;;;20.59;52.24;94000.63;5078472;27;20032;-75
2022/08/11 02:07:29;;;;;;;6.13;3.53;;;;;;;20.50;51.94;93996.69;5074088;28;20452;-75
2022/08/11 02:13:27;;;;;;;4.18;3.78;;;;;;;20.42;51.88;93993.16;5066231;28;20514;-76
2022/08/11 02:16:24;;;;;;;4.03;3.63;;;;;;;20.31;52.38;93984.16;5073422;28;20092;-75
2022/08/11 02:25:17;;;;;;;3.58;3.28;;;;;;;20.31;52.38;93997.66;5066997;28;20031;-75
2022/08/11 02:28:00;;;;;;;3.97;3.33;;;;;;;20.32;52.31;93996.53;5074126;28;20012;-74
2022/08/11 02:30:34;;;;;;;4.97;4.10;;;;;;;20.30;52.26;93996.09;5073665;28;20144;-75
2022/08/11 02:33:22;;;;;;;4.18;3.80;;;;;;;20.31;52.28;94003.06;5058580;28;20368;-75
2022/08/11 02:36:05;;;;;;;6.40;3.70;;;;;;;20.23;52.28;93995.25;5070777;28;20024;-74
2022/08/11 02:38:36;;;;;;;5.15;3.80;;;;;;;20.29;52.17;94001.88;5071363;28;20055;-75
2022/08/11 02:42:21;;;;;;;4.07;3.65;;;;;;;20.29;51.97;93999.94;5073543;28;20039;-75
2022/08/11 02:44:30;;;;;;;4.32;3.63;;;;;;;20.29;51.95;93989.13;5070448;28;20103;-74
2022/08/11 02:47:13;;;;;;;4.45;3.65;;;;;;;20.18;52.30;93996.38;5058645;28;20513;-75
2022/08/11 02:50:12;;;;;;;4.22;3.67;;;;;;;20.11;52.28;93990.84;5070969;28;20179;-74
2022/08/11 02:52:58;;;;;;;4.50;3.78;;;;;;;20.13;52.27;93997.44;5069913;28;20403;-75
2022/08/11 02:55:42;;;;;;;6.53;3.60;;;;;;;20.11;52.44;93996.25;5072425;28;20107;-75
2022/08/11 02:58:37;;;;;;;3.72;3.15;;;;;;;20.04;52.31;93979.97;5073034;28;20044;-74
2022/08/11 03:01:12;;;;;;;4.87;3.83;;;;;;;20.12;52.45;93987.78;5071332;28;20038;-75
2022/08/11 03:04:06;;;;;;;5.18;3.75;;;;;;;20.12;52.40;93992.41;5073312;28;20082;-75
2022/08/11 03:06:56;;;;;;;3.78;3.28;;;;;;;20.14;52.37;93996.28;5068265;28;20497;-75
2022/08/11 03:09:37;;;;;;;4.70;3.55;;;;;;;20.16;52.29;93993.22;5077046;28;20027;-75
2022/08/11 03:18:58;;;;;;;3.75;2.90;;;;;;;20.06;52.24;94001.97;5045161;28;20739;-75
2022/08/11 03:21:31;;;;;;;4.60;3.42;;;;;;;19.99;52.33;93999.97;5075505;28;20028;-75
2022/08/11 03:24:45;;;;;;;3.50;3.20;;;;;;;20.00;51.96;93987.25;5072514;28;20020;-75
2022/08/11 03:27:36;;;;;;;3.42;3.13;;;;;;;20.07;52.20;94003.53;5070419;28;20432;-75
2022/08/11 03:30:10;;;;;;;3.78;3.17;;;;;;;20.06;51.86;93994.66;5071255;28;20035;-75
2022/08/11 03:34:01;;;;;;;;;;;;;;;20.04;52.10;94005.03;5073485;28;20023;-75
2022/08/11 03:35:43;;;;;;;4.93;3.25;;;;;;;19.83;52.26;93977.81;5071036;28;19948;-75
2022/08/11 03:38:13;;;;;;;3.35;2.90;;;;;;;19.84;52.44;93984.75;5073533;28;20028;-73
2022/08/11 03:43:54;;;;;;;4.32;3.30;;;;;;;19.96;52.58;93997.22;5071931;28;20078;-74
2022/08/11 03:46:43;;;;;;;3.95;3.17;;;;;;;19.96;52.57;94008.00;5070535;28;20114;-75
2022/08/11 03:49:18;;;;;;;3.58;3.28;;;;;;;19.95;52.71;94001.84;5069129;28;20387;-74
2022/08/11 03:51:43;;;;;;;;;;;;;;;19.97;52.66;94001.47;5076910;28;20031;-76
2022/08/11 03:54:21;;;;;;;4.43;3.73;;;;;;;19.90;52.85;93999.47;5071656;28;19912;-75
2022/08/11 03:57:14;;;;;;;4.03;3.45;;;;;;;19.94;52.98;94002.22;5071552;28;20024;-75
2022/08/11 03:59:55;;;;;;;3.83;3.35;;;;;;;19.95;53.01;94007.25;5072101;28;20239;-75
2022/08/11 04:02:32;;;;;;;4.18;3.45;;;;;;;19.95;53.21;94009.16;5073025;28;20569;-75
2022/08/11 04:05:32;;;;;;;6.22;3.10;;;;;;;19.97;53.24;94006.88;5071751;28;20454;-75
2022/08/11 04:08:33;;;;;;;6.30;3.78;;;;;;;20.01;53.26;94011.19;5070948;28;20085;-74
2022/08/11 04:11:07;;;;;;;5.88;3.88;;;;;;;20.01;53.58;94008.47;5062061;28;20029;-75
2022/08/11 04:15:59;;;;;;;4.82;4.03;;;;;;;20.04;53.66;94009.69;5071431;28;20074;-75
2022/08/11 04:17:22;;;;;;;4.30;3.55;;;;;;;20.16;53.52;94012.13;5070247;28;20031;-74
2022/08/11 04:20:21;;;;;;;6.30;3.63;;;;;;;20.23;53.94;94011.47;5066517;28;20033;-74
2022/08/11 04:23:29;;;;;;;5.38;3.60;;;;;;;20.32;53.31;94007.31;5070721;28;20031;-74
2022/08/11 04:26:32;;;;;;;8.90;6.30;;;;;;;20.43;53.18;94010.91;5071504;28;20063;-74
2022/08/11 04:29:21;;;;;;;3.80;3.38;;;;;;;20.45;53.24;94008.59;5072770;28;20107;-75
2022/08/11 04:32:23;;;;;;;4.97;3.95;;;;;;;20.64;52.84;94004.94;5071602;28;20020;-75
2022/08/11 04:35:23;;;;;;;4.45;3.70;;;;;;;20.75;52.53;94007.72;5072670;28;20543;-75
2022/08/11 04:38:05;;;;;;;4.10;3.60;;;;;;;20.89;52.28;94016.00;5070405;28;20082;-74
2022/08/11 04:40:36;;;;;;;5.18;3.95;;;;;;;20.99;51.95;94005.28;5079552;28;20029;-74
2022/08/11 04:43:21;;;;;;;4.18;3.78;;;;;;;20.81;52.06;93987.34;5071066;28;20027;-75
2022/08/11 04:46:05;;;;;;;5.05;3.60;;;;;;;21.07;51.53;94006.09;5072364;28;20032;-75
2022/08/11 05:03:45;;;;;;;6.95;4.65;;;;;;;21.11;52.11;94000.75;5070968;28;20063;-75
2022/08/11 05:06:45;;;;;;;6.40;5.10;;;;;;;21.20;51.95;94018.19;5072449;28;20025;-74
2022/08/11 05:09:22;;;;;;;4.22;3.83;;;;;;;21.22;51.81;94024.00;5066311;28;20344;-74
2022/08/11 05:12:25;;;;;;;6.22;4.10;;;;;;;21.01;51.56;94015.72;5069713;28;20035;-75
2022/08/11 05:35:03;;;;;;;8.48;4.50;;;;;;;21.18;52.42;94012.38;5073515;28;20035;-76
2022/08/11 05:37:28;;;;;;;8.40;4.93;;;;;;;21.29;51.73;94015.94;5091178;27;20024;-76
2022/08/11 05:57:04;;;;;;;7.03;5.38;;;;;;;21.02;51.81;94003.78;5072490;28;20582;-76
2022/08/11 05:59:30;;;;;;;8.25;4.95;;;;;;;21.31;51.42;94016.34;5074262;28;20124;-75
2022/08/11 06:02:04;;;;;;;6.93;4.95;;;;;;;21.41;51.04;94017.59;5075314;28;20035;-76
2022/08/11 06:04:31;;;;;;;5.97;4.85;;;;;;;21.29;51.83;94021.34;5073474;28;20438;-75
2022/08/11 06:07:05;;;;;;;5.95;4.43;;;;;;;21.38;51.26;94016.38;5074072;28;20024;-75
2022/08/11 06:09:58;;;;;;;6.03;4.43;;;;;;;21.53;51.43;94019.19;5081074;28;20059;-77
2022/08/11 06:12:34;;;;;;;5.13;4.63;;;;;;;21.66;50.75;94012.31;5072678;28;20750;-74
2022/08/11 06:15:05;;;;;;;6.38;5.20;;;;;;;21.89;50.93;94012.84;5077635;28;20036;-75
2022/08/11 06:17:35;;;;;;;7.22;5.03;;;;;;;21.97;50.50;93998.19;5071481;28;20039;-76
2022/08/11 06:20:11;;;;;;;5.13;4.32;;;;;;;22.11;50.08;94006.34;5072817;28;20023;-76
2022/08/11 06:22:43;;;;;;;7.85;4.97;;;;;;;21.84;50.09;94000.47;5070271;28;20035;-76
2022/08/11 06:25:11;;;;;;;5.97;4.15;;;;;;;21.60;50.66;94005.75;5073200;28;20024;-75
2022/08/11 06:27:39;;;;;;;6.70;5.53;;;;;;;21.65;50.52;94008.88;5072359;28;20019;-75
2022/08/11 06:30:12;;;;;;;6.00;3.95;;;;;;;21.54;49.75;94007.22;5073365;28;20071;-76
2022/08/11 06:32:45;;;;;;;4.28;3.50;;;;;;;21.69;50.13;94008.88;5072723;28;20039;-75
2022/08/11 06:35:35;;;;;;;6.82;5.00;;;;;;;21.40;49.41;93978.16;5074155;28;20080;-75
2022/08/11 06:38:06;;;;;;;5.13;3.97;;;;;;;21.82;49.16;94008.16;5069220;28;20126;-76
2022/08/11 06:40:42;;;;;;;6.32;3.70;;;;;;;22.10;48.86;94004.03;5077145;28;20051;-76
2022/08/11 06:43:20;;;;;;;4.97;3.72;;;;;;;22.11;48.16;93997.47;5071356;28;20403;-76
2022/08/11 06:46:02;;;;;;;5.28;4.07;;;;;;;22.14;48.82;94005.63;5071727;28;20020;-76
2022/08/11 06:48:31;;;;;;;5.25;4.00;;;;;;;22.24;48.71;94007.59;5075300;28;20024;-75
2022/08/11 06:51:10;;;;;;;4.10;3.80;;;;;;;22.29;47.32;93988.25;5070702;28;20082;-76
2022/08/11 06:53:44;;;;;;;4.00;3.65;;;;;;;22.51;46.85;94002.66;5072754;28;20036;-76
2022/08/11 07:02:04;;;;;;;4.63;4.20;;;;;;;22.39;46.35;94005.69;5072154;28;20035;-76
2022/08/11 07:04:38;;;;;;;5.45;3.42;;;;;;;22.30;46.13;94003.34;5070812;28;20510;-76
2022/08/11 07:16:28;;;;;;;6.25;3.67;;;;;;;22.96;44.82;94013.97;5071422;28;20034;-76
2022/08/11 07:30:39;;;;;;;7.07;2.85;;;;;;;22.99;43.17;94000.41;5064341;28;20038;-76
2022/08/11 07:33:06;;;;;;;4.57;4.18;;;;;;;22.84;44.18;94012.38;5063327;28;20031;-76
2022/08/11 07:35:42;;;;;;;5.43;3.25;;;;;;;22.92;44.74;93992.28;5063073;28;20019;-75
2022/08/11 07:38:20;;;;;;;3.42;3.13;;;;;;;23.07;43.85;94020.19;5065963;28;20021;-74
2022/08/11 07:40:46;;;;;;;3.42;3.03;;;;;;;22.93;43.94;93987.59;5074842;28;20490;-74
2022/08/11 07:43:13;;;;;;;5.45;3.33;;;;;;;22.72;44.47;94010.06;5063043;28;20044;-73
2022/08/11 07:54:04;;;;;;;5.43;3.65;;;;;;;22.28;45.26;93984.03;5068015;28;20050;-75
2022/08/11 07:56:36;;;;;;;4.43;3.65;;;;;;;22.52;44.29;94011.56;5068301;28;20024;-74
2022/08/11 08:18:26;;;;;;;5.30;3.00;;;;;;;23.09;41.97;94002.34;5069573;28;20081;-74
2022/08/11 08:20:54;;;;;;;4.13;3.20;;;;;;;22.82;42.12;93998.44;5066341;28;20493;-74
2022/08/11 08:23:31;;;;;;;3.72;3.05;;;;;;;22.38;42.19;94008.81;5066376;28;20197;-73
2022/08/11 08:26:00;;;;;;;3.33;3.00;;;;;;;22.44;42.54;93999.91;5065928;28;20024;-75
2022/08/11 08:28:27;;;;;;;3.35;3.05;;;;;;;22.85;43.15;94002.31;5066143;28;20032;-75
2022/08/11 08:30:55;;;;;;;7.72;3.05;;;;;;;23.08;42.87;93994.59;5067364;28;20463;-75
2022/08/11 08:33:26;;;;;;;4.40;3.22;;;;;;;23.20;41.82;93979.88;5064630;28;20031;-76
2022/08/11 08:36:15;;;;;;;5.53;3.70;;;;;;;23.30;41.97;93968.22;5065935;28;20151;-75
2022/08/11 08:38:47;;;;;;;3.58;3.17;;;;;;;23.52;42.61;93988.75;5053272;28;20032;-76
2022/08/11 08:41:19;;;;;;;4.30;3.35;;;;;;;23.51;41.19;93981.81;5068525;28;20279;-75
2022/08/11 08:43:49;;;;;;;4.07;3.33;;;;;;;23.34;42.17;93974.44;5068965;28;20032;-74
2022/08/11 08:46:19;;;;;;;13.35;3.65;;;;;;;23.15;42.11;93967.47;5071431;28;20027;-74
2022/08/11 08:48:46;;;;;;;4.22;3.08;;;;;;;23.05;41.68;93982.59;5065532;28;20028;-75
2022/08/11 08:54:04;;;;;;;2.70;2.05;;;;;;;23.06;41.15;93986.88;5064578;28;20063;-74
2022/08/11 08:56:33;;;;;;;4.13;3.20;;;;;;;23.15;41.46;93979.09;5069102;28;20066;-74
2022/08/11 08:59:01;;;;;;;3.80;3.20;;;;;;;23.31;42.63;93976.00;5068893;28;20454;-74
2022/08/11 09:01:39;;;;;;;3.13;2.50;;;;;;;23.46;41.49;93966.66;5071658;28;20063;-73
2022/08/11 09:04:10;;;;;;;5.53;3.22;;;;;;;23.62;40.75;93976.34;5066228;28;20028;-73
2022/08/11 09:06:41;;;;;;;3.33;2.85;;;;;;;23.44;40.36;93960.84;5070043;28;20410;-73
2022/08/11 09:09:08;;;;;;;3.88;2.85;;;;;;;23.46;40.70;93961.25;5069190;28;20025;-73
2022/08/11 09:11:54;;;;;;;6.60;3.42;;;;;;;23.31;41.77;93953.50;5069567;28;20432;-73
2022/08/11 09:14:24;;;;;;;4.80;3.05;;;;;;;23.06;41.81;93970.59;5069271;28;20028;-73
2022/08/11 09:16:51;;;;;;;3.38;2.80;;;;;;;22.97;41.95;93967.50;5069611;28;20043;-75
2022/08/11 09:19:19;;;;;;;4.10;2.97;;;;;;;23.02;42.82;93971.75;5064538;28;20028;-76
2022/08/11 09:27:21;;;;;;;3.53;2.65;;;;;;;23.22;42.65;93972.13;5070416;28;20051;-76
2022/08/11 09:29:47;;;;;;;3.67;2.42;;;;;;;22.98;42.88;93954.69;5066811;28;20032;-73
2022/08/11 09:32:13;;;;;;;3.90;1.95;;;;;;;22.81;40.70;93972.47;5070695;28;20021;-73
2022/08/11 09:34:39;;;;;;;3.88;2.33;;;;;;;22.66;41.96;93977.13;5067346;28;20414;-76
2022/08/11 09:45:22;;;;;;;3.63;2.70;;;;;;;22.54;42.55;93955.00;5075077;28;20063;-74
2022/08/11 09:47:48;;;;;;;2.65;2.45;;;;;;;22.76;42.23;93945.75;5079076;28;20083;-73
2022/08/11 09:50:16;;;;;;;4.18;2.75;;;;;;;23.00;42.32;93941.53;5078042;28;20024;-73
2022/08/11 09:52:44;;;;;;;5.28;2.38;;;;;;;23.00;41.11;93945.00;5072202;28;20100;-74
2022/08/11 09:55:13;;;;;;;4.40;2.42;;;;;;;23.08;40.67;93941.13;5077513;28;20140;-74
2022/08/11 10:00:29;;;;;;;2.83;2.30;;;;;;;22.99;41.38;93943.44;5067457;28;20691;-74
2022/08/11 10:02:56;;;;;;;2.65;2.30;;;;;;;22.58;41.60;93945.75;5071009;28;20056;-74
2022/08/11 10:08:11;;;;;;;4.68;3.10;;;;;;;22.84;42.66;93928.31;5071113;28;20499;-74
2022/08/11 10:10:38;;;;;;;3.10;2.80;;;;;;;22.94;42.93;93934.94;5060892;28;20392;-74
2022/08/11 10:13:10;;;;;;;6.05;3.63;;;;;;;22.77;43.00;93935.69;5070804;28;20138;-74
2022/08/11 10:15:39;;;;;;;4.35;3.38;;;;;;;22.85;42.73;93934.50;5076321;28;20024;-75
2022/08/11 10:20:53;;;;;;;3.00;2.53;;;;;;;23.05;41.72;93930.28;5075384;28;20043;-75
2022/08/11 10:28:50;;;;;;;4.80;2.95;;;;;;;22.92;41.79;93937.28;5071331;28;20048;-75
2022/08/11 10:34:03;;;;;;;4.65;3.40;;;;;;;22.77;42.53;93916.72;5072936;28;20027;-74
2022/08/11 10:36:33;;;;;;;4.43;3.00;;;;;;;23.07;42.14;93928.72;5073644;28;20079;-75
2022/08/11 10:39:01;;;;;;;4.10;3.40;;;;;;;22.88;42.48;93929.13;5071849;28;20040;-75
2022/08/11 10:44:12;;;;;;;3.50;3.03;;;;;;;22.46;42.84;93920.94;5070641;28;20425;-74
2022/08/11 10:49:25;;;;;;;3.70;3.25;;;;;;;22.97;41.62;93924.09;5073422;28;20031;-75
2022/08/11 11:00:13;;;;;;;;;;;;;;;23.05;40.88;93909.34;5069346;28;20097;-74
2022/08/11 11:02:41;;;;;;;3.80;2.63;;;;;;;23.09;41.23;93918.25;5073438;28;20018;-76
2022/08/11 11:05:11;;;;;;;3.28;2.28;;;;;;;22.96;40.24;93898.13;5068943;28;20029;-73
2022/08/11 11:07:47;;;;;;;5.47;2.63;;;;;;;22.75;39.73;93881.84;5072508;28;20109;-74
2022/08/11 11:10:13;;;;;;;3.70;2.30;;;;;;;22.93;39.58;93907.03;5071792;28;20037;-74
2022/08/11 11:18:22;;;;;;;2.95;2.40;;;;;;;23.12;40.28;93906.63;5073267;28;20054;-74
2022/08/11 11:21:08;;;;;;;2.70;2.30;;;;;;;23.09;40.71;93903.91;5080867;28;20078;-75
2022/08/11 11:23:49;;;;;;;4.15;3.17;;;;;;;22.81;40.96;93885.72;5070301;28;20047;-75
2022/08/11 11:26:33;;;;;;;9.43;3.30;;;;;;;22.83;42.28;93888.81;5070453;28;20032;-75
2022/08/11 11:29:21;;;;;;;4.88;2.85;;;;;;;23.04;42.08;93907.81;5071351;28;20020;-74
2022/08/11 11:32:16;;;;;;;5.35;2.97;;;;;;;22.94;41.48;93892.31;5067474;28;20387;-75
2022/08/11 11:34:51;;;;;;;;;;;;;;;23.13;41.21;93896.53;5070393;28;20035;-75
2022/08/11 11:37:17;;;;;;;3.22;2.40;;;;;;;23.05;40.72;93890.38;5078780;28;19966;-76
2022/08/11 11:39:44;;;;;;;5.95;2.80;;;;;;;23.23;40.56;93903.13;5068915;28;20110;-75
2022/08/11 11:42:10;;;;;;;3.97;2.88;;;;;;;23.02;41.31;93885.75;5068146;28;20164;-76
2022/08/11 11:44:43;;;;;;;5.20;2.83;;;;;;;23.24;40.00;93901.94;5067857;28;20031;-74
2022/08/11 11:47:11;;;;;;;3.08;2.78;;;;;;;23.31;40.56;93896.53;5071242;28;20084;-75
2022/08/11 11:49:41;;;;;;;4.25;3.20;;;;;;;23.22;41.05;93874.47;5071141;28;20111;-76
2022/08/11 11:52:12;;;;;;;3.38;2.92;;;;;;;23.56;41.35;93891.81;5073160;28;20035;-76
2022/08/11 11:54:38;;;;;;;4.95;2.58;;;;;;;23.58;39.64;93894.91;5069003;28;20032;-75
2022/08/11 12:02:36;;;;;;;4.03;2.90;;;;;;;23.73;37.71;93873.91;5066644;28;20038;-76
2022/08/11 12:05:04;;;;;;;4.72;2.78;;;;;;;23.96;38.04;93880.38;5076141;28;20055;-76
2022/08/11 12:10:16;;;;;;;3.45;2.55;;;;;;;23.84;39.18;93875.41;5065823;28;20031;-74
2022/08/11 12:15:27;;;;;;;;;;;;;;;23.70;38.66;93878.19;5064601;28;20055;-76
2022/08/11 12:17:53;;;;;;;3.40;2.95;;;;;;;23.63;38.78;93823.91;5070782;28;20030;-74
2022/08/11 12:20:20;;;;;;;3.17;2.75;;;;;;;24.05;39.20;93860.94;5071729;28;20056;-75
2022/08/11 12:28:14;;;;;;;3.67;2.92;;;;;;;23.93;39.11;93870.31;5078474;28;19977;-75
2022/08/11 12:30:41;;;;;;;5.32;2.75;;;;;;;24.07;38.60;93860.53;5070690;28;20479;-75
2022/08/11 12:33:08;;;;;;;4.15;3.42;;;;;;;24.15;40.14;93876.41;5072636;28;20051;-75
2022/08/11 12:35:35;;;;;;;5.47;3.17;;;;;;;24.11;40.50;93864.00;5073187;28;20372;-75
2022/08/11 12:38:03;;;;;;;4.72;3.38;;;;;;;24.07;41.15;93857.81;5072516;28;20034;-75
2022/08/11 12:46:06;;;;;;;3.47;2.97;;;;;;;24.41;41.20;93872.38;5069256;28;20104;-76
2022/08/11 13:07:42;;;;;;;2.78;2.40;;;;;;;24.60;40.20;93892.81;5019392;27;21082;-76
2022/08/11 13:10:10;;;;;;;2.97;2.42;;;;;;;24.43;40.25;93872.75;5021643;28;20084;-76
2022/08/11 13:12:48;;;;;;;2.75;2.38;;;;;;;24.54;40.54;93892.47;5025582;27;20025;-76
2022/08/11 13:15:18;;;;;;;3.30;2.95;;;;;;;24.47;40.06;93884.38;5036359;27;20398;-76
2022/08/11 13:17:47;;;;;;;3.38;2.80;;;;;;;24.40;39.61;93884.41;5024193;27;20078;-76
2022/08/11 13:20:15;;;;;;;3.13;2.50;;;;;;;24.35;39.64;93891.03;5021089;27;20059;-76
2022/08/11 13:22:46;;;;;;;2.50;2.30;;;;;;;24.27;39.65;93894.22;5020129;27;20037;-76
2022/08/11 13:25:15;;;;;;;3.28;2.75;;;;;;;24.10;39.79;93878.78;5021756;27;20030;-77
2022/08/11 13:27:42;;;;;;;3.17;2.45;;;;;;;24.21;40.02;93891.13;5020953;27;20058;-76
2022/08/11 13:32:54;;;;;;;2.63;2.40;;;;;;;24.25;40.65;93893.81;5020800;27;20395;-76
2022/08/11 13:35:21;;;;;;;4.65;2.85;;;;;;;24.11;40.50;93872.94;5016519;27;20025;-77
2022/08/11 13:37:49;;;;;;;4.78;2.47;;;;;;;24.07;40.87;93893.13;5019741;27;20473;-76
2022/08/11 13:40:18;;;;;;;2.65;2.45;;;;;;;24.14;40.50;93882.25;5022302;27;20100;-76
2022/08/11 13:42:45;;;;;;;2.42;2.10;;;;;;;24.17;40.93;93859.72;5021051;27;20981;-77
2022/08/11 13:45:12;;;;;;;4.07;2.83;;;;;;;24.31;40.81;93867.78;5022010;28;20036;-76
2022/08/11 13:47:39;;;;;;;3.03;2.67;;;;;;;24.44;39.49;93856.03;5019410;27;20040;-75
2022/08/11 13:50:06;;;;;;;2.80;2.47;;;;;;;24.56;40.79;93852.06;5021060;27;20756;-76
2022/08/11 13:52:34;;;;;;;4.75;2.75;;;;;;;24.85;41.76;93868.94;5021579;27;20166;-75
2022/08/11 13:55:00;;;;;;;3.13;2.72;;;;;;;25.07;38.84;93864.09;5024363;27;20535;-75
2022/08/11 13:57:32;;;;;;;3.33;2.20;;;;;;;25.19;38.95;93863.56;5021272;27;20359;-75
2022/08/11 14:00:08;;;;;;;2.70;2.38;;;;;;;24.83;40.44;93795.88;5018675;27;20059;-76
2022/08/11 14:02:36;;;;;;;2.33;2.03;;;;;;;25.46;38.46;93853.56;5022950;27;20029;-74
2022/08/11 14:05:07;;;;;;;3.72;2.28;;;;;;;25.56;40.40;93849.97;5020204;27;20038;-75
2022/08/11 14:07:38;;;;;;;4.90;2.30;;;;;;;25.65;37.19;93850.22;5013351;27;20037;-75
2022/08/11 14:10:06;;;;;;;3.38;2.30;;;;;;;25.80;38.29;93855.50;5003011;28;20218;-75
2022/08/11 14:15:23;;;;;;;2.60;2.30;;;;;;;25.88;36.64;93840.59;5003322;27;20126;-75
2022/08/11 14:18:08;;;;;;;3.28;2.38;;;;;;;26.02;36.12;93848.59;5006616;28;20090;-74
2022/08/11 14:23:34;;;;;;;4.38;2.15;;;;;;;25.93;36.16;93832.78;5003647;28;20137;-75
2022/08/11 14:28:45;;;;;;;6.55;2.58;;;;;;;25.69;36.22;93812.06;5004157;28;20330;-75
2022/08/11 14:31:14;;;;;;;2.67;2.42;;;;;;;26.04;37.06;93835.34;5006305;27;20040;-75
2022/08/11 14:33:40;;;;;;;2.90;2.50;;;;;;;26.12;36.76;93850.41;5008050;28;20109;-75
2022/08/11 14:36:10;;;;;;;2.50;2.30;;;;;;;25.96;37.33;93828.44;5003937;28;20021;-74
2022/08/11 14:38:37;;;;;;;3.53;2.35;;;;;;;26.15;36.03;93830.53;5006825;28;20116;-75
2022/08/11 14:49:18;;;;;;;2.72;2.35;;;;;;;26.20;35.21;93821.13;5005079;28;20040;-75
2022/08/11 14:51:45;;;;;;;2.42;2.22;;;;;;;26.52;34.71;93841.28;5002028;28;20484;-74
2022/08/11 14:56:56;;;;;;;2.97;2.67;;;;;;;26.44;34.01;93820.72;4998185;28;20507;-75
2022/08/11 14:59:22;;;;;;;2.70;2.45;;;;;;;26.25;33.42;93818.66;5004666;28;20046;-75
2022/08/11 15:04:33;;;;;;;4.07;3.00;;;;;;;26.59;34.48;93832.22;5005731;28;20033;-74
2022/08/11 15:06:59;;;;;;;3.53;2.63;;;;;;;26.46;34.25;93817.59;5003488;28;20086;-75
2022/08/11 15:09:24;;;;;;;3.25;2.95;;;;;;;26.60;34.38;93825.53;4997682;28;20174;-75
2022/08/11 15:17:35;;;;;;;4.00;3.28;;;;;;;26.62;35.43;93809.56;5006102;28;20040;-75
2022/08/11 15:25:35;;;;;;;3.25;2.47;;;;;;;26.50;35.00;93805.44;5004641;28;20457;-75
2022/08/11 15:39:15;;;;;;;4.22;2.70;;;;;;;26.04;36.67;93817.06;5006201;28;20069;-75
2022/08/11 15:47:21;;;;;;;3.72;3.00;;;;;;;25.83;35.93;93805.63;5006445;28;20028;-75
2022/08/11 15:49:52;;;;;;;2.95;2.65;;;;;;;25.74;36.05;93824.44;5001529;28;20953;-75
2022/08/11 15:52:22;;;;;;;5.03;2.70;;;;;;;25.71;36.04;93815.16;5006130;28;20037;-74
2022/08/11 15:54:48;;;;;;;6.38;2.80;;;;;;;25.69;36.52;93818.28;5003491;28;20139;-75
2022/08/11 16:05:48;;;;;;;2.60;2.38;;;;;;;25.48;35.80;93823.19;5002275;28;20683;-74
2022/08/11 16:08:18;;;;;;;2.75;2.33;;;;;;;25.44;35.60;93822.47;5007088;28;20628;-75
2022/08/11 16:10:44;;;;;;;2.90;2.17;;;;;;;25.34;35.52;93807.81;5005840;28;20029;-74
2022/08/11 16:18:52;;;;;;;2.95;2.58;;;;;;;25.06;35.11;93808.09;5008136;28;20401;-76
2022/08/11 16:21:25;;;;;;;3.17;2.35;;;;;;;25.05;35.80;93834.53;5008215;28;20037;-74
2022/08/11 16:23:54;;;;;;;4.57;3.05;;;;;;;24.91;35.76;93823.81;5006022;28;20021;-75
2022/08/11 16:26:22;;;;;;;5.15;2.85;;;;;;;24.60;35.25;93784.06;5005068;28;20477;-74
2022/08/11 16:28:50;;;;;;;4.10;3.45;;;;;;;24.89;35.35;93836.25;5006458;28;20112;-75
2022/08/11 16:31:18;;;;;;;3.15;2.53;;;;;;;24.59;35.79;93813.19;5007036;28;20401;-74
2022/08/11 16:33:44;;;;;;;3.30;2.70;;;;;;;24.57;36.43;93826.44;5005414;28;20025;-75
2022/08/11 16:39:00;;;;;;;4.07;2.88;;;;;;;24.59;36.79;93834.94;5005197;28;20076;-75
2022/08/11 16:47:04;;;;;;;3.58;2.03;;;;;;;24.78;36.44;93837.13;5003175;28;20044;-75
2022/08/11 16:49:41;;;;;;;4.70;2.75;;;;;;;24.95;36.54;93845.53;5006727;28;20148;-75
2022/08/11 16:52:10;;;;;;;5.13;3.58;;;;;;;24.94;35.75;93854.84;5011951;28;20102;-75
2022/08/11 16:54:37;;;;;;;5.60;3.28;;;;;;;24.83;35.79;93844.84;5005085;28;20026;-75
2022/08/11 16:59:54;;;;;;;3.10;2.30;;;;;;;24.44;37.03;93871.59;5004773;28;20503;-76
2022/08/11 17:14:06;;;;;;;3.60;2.17;;;;;;;24.74;36.47;93869.03;5005311;28;20138;-75
2022/08/11 17:16:38;;;;;;;3.35;2.67;;;;;;;24.74;36.30;93874.47;5001855;28;20038;-75
2022/08/11 17:19:20;;;;;;;4.70;2.55;;;;;;;24.63;37.06;93851.25;4998753;28;20482;-75
2022/08/11 17:24:42;;;;;;;6.20;3.25;;;;;;;24.93;36.47;93880.53;4997138;28;20126;-75
2022/08/11 17:27:08;;;;;;;3.78;3.38;;;;;;;24.90;37.68;93879.38;4995928;28;20053;-75